createdAt,value
2023-05-01T00:01:36.640Z,56.31
2023-05-01T00:04:40.122Z,57.50
2023-05-01T00:07:43.600Z,57.35
2023-05-01T00:10:47.034Z,58.17
2023-05-01T00:13:50.448Z,57.29
2023-05-01T00:17:04.354Z,57.75
2023-05-01T00:20:08.858Z,58.48
2023-05-01T00:23:12.679Z,58.91
2023-05-01T00:26:16.022Z,59.67
2023-05-01T00:29:22.966Z,58.50
2023-05-01T00:32:26.536Z,58.16
2023-05-01T00:35:30.480Z,58.29
2023-05-01T00:38:33.829Z,59.17
2023-05-01T00:41:37.545Z,58.44
2023-05-01T00:44:40.746Z,58.09
2023-05-01T00:47:43.846Z,58.49
2023-05-01T00:50:48.252Z,58.21
2023-05-01T00:53:52.341Z,59.29
2023-05-01T00:56:55.833Z,59.32
2023-05-01T00:59:59.346Z,59.51
2023-05-01T01:03:02.691Z,60.60
2023-05-01T01:06:05.858Z,59.70
2023-05-01T01:09:36.548Z,59.91
2023-05-01T01:12:46.812Z,59.61
2023-05-01T01:15:53.084Z,60.48
2023-05-01T01:19:06.255Z,60.64
2023-05-01T01:22:15.669Z,60.30
2023-05-01T01:25:37.850Z,60.89
2023-05-01T01:29:15.545Z,60.33
2023-05-01T01:32:33.713Z,61.08
2023-05-01T01:35:39.201Z,62.53
2023-05-01T01:39:10.456Z,62.53
2023-05-01T01:42:18.428Z,62.99
2023-05-01T01:45:25.929Z,63.38
2023-05-01T01:48:36.343Z,64.02
2023-05-01T01:51:42.256Z,63.29
2023-05-01T01:54:54.708Z,64.09
2023-05-01T01:57:59.748Z,64.00
2023-05-01T02:01:06.485Z,63.74
2023-05-01T02:04:13.243Z,64.66
2023-05-01T02:07:18.238Z,64.12
2023-05-01T02:10:23.300Z,64.13
2023-05-01T02:13:29.622Z,64.98
2023-05-01T02:16:34.213Z,65.83
2023-05-01T02:19:40.692Z,66.73
2023-05-01T02:22:46.237Z,65.95
2023-05-01T02:25:53.304Z,67.79
2023-05-01T02:28:56.984Z,65.91
2023-05-01T02:32:01.201Z,66.34
2023-05-01T02:35:05.074Z,66.61
2023-05-01T02:38:08.412Z,66.83
2023-05-01T02:41:13.024Z,66.49
2023-05-01T02:44:18.259Z,67.57
2023-05-01T02:47:23.905Z,67.07
2023-05-01T02:50:29.598Z,65.81
2023-05-01T02:53:33.715Z,66.74
2023-05-01T02:56:45.230Z,67.04
2023-05-01T02:59:48.254Z,67.90
2023-05-01T03:02:51.593Z,67.92
2023-05-01T03:05:54.767Z,68.22
2023-05-01T03:08:57.753Z,68.14
2023-05-01T03:12:01.313Z,68.42
2023-05-01T03:15:04.743Z,68.35
2023-05-01T03:18:08.122Z,68.75
2023-05-01T03:21:12.998Z,67.05
2023-05-01T03:24:16.882Z,67.89
2023-05-01T03:27:20.373Z,68.13
2023-05-01T03:30:23.468Z,66.97
2023-05-01T03:33:27.988Z,66.45
2023-05-01T03:36:34.031Z,63.58
2023-05-01T03:39:37.920Z,61.16
2023-05-01T03:42:59.934Z,59.81
2023-05-01T03:46:03.268Z,60.03
2023-05-01T03:49:07.838Z,60.57
2023-05-01T03:52:18.109Z,59.84
2023-05-01T03:55:21.941Z,58.74
2023-05-01T03:58:27.103Z,58.80
2023-05-01T04:01:30.454Z,59.64
2023-05-01T04:04:34.077Z,58.84
2023-05-01T04:07:37.494Z,60.66
2023-05-01T04:10:41.013Z,58.17
2023-05-01T04:13:44.360Z,58.63
2023-05-01T04:16:48.366Z,62.24
2023-05-01T04:19:52.148Z,58.65
2023-05-01T04:22:55.441Z,56.67
2023-05-01T04:29:17.241Z,54.90
2023-05-01T04:32:20.665Z,56.11
2023-05-01T04:35:26.163Z,55.62
2023-05-01T04:38:31.292Z,54.26
2023-05-01T04:41:35.725Z,55.29
2023-05-01T04:44:40.983Z,51.14
2023-05-01T04:47:44.429Z,53.37
2023-05-01T04:50:47.733Z,53.35
2023-05-01T04:53:50.995Z,55.94
2023-05-01T04:56:58.595Z,49.95
2023-05-01T05:00:02.201Z,49.95
2023-05-01T05:03:08.102Z,49.86
2023-05-01T05:06:11.654Z,49.98
2023-05-01T05:09:16.045Z,47.93
2023-05-01T05:12:20.592Z,46.58
2023-05-01T05:15:23.921Z,47.24
2023-05-01T05:18:27.223Z,46.30
2023-05-01T05:21:31.923Z,44.64
2023-05-01T05:24:37.982Z,45.95
2023-05-01T05:27:41.189Z,43.80
2023-05-01T05:30:44.692Z,43.80
2023-05-01T05:33:52.224Z,45.14
2023-05-01T05:36:55.395Z,44.22
2023-05-01T05:40:01.015Z,42.26
2023-05-01T05:43:07.630Z,40.98
2023-05-01T05:46:11.666Z,41.60
2023-05-01T05:49:16.081Z,39.73
2023-05-01T05:52:19.262Z,39.58
2023-05-01T05:55:22.671Z,39.45
2023-05-01T05:58:44.271Z,38.82
2023-05-01T06:01:47.364Z,37.87
2023-05-01T06:04:50.658Z,37.37
2023-05-01T06:07:56.193Z,36.77
2023-05-01T06:10:59.509Z,36.99
2023-05-01T06:14:03.734Z,38.38
2023-05-01T06:17:08.264Z,36.25
2023-05-01T06:20:16.340Z,36.50
2023-05-01T06:23:19.874Z,37.76
2023-05-01T06:26:35.676Z,37.83
2023-05-01T06:29:39.247Z,36.45
2023-05-01T06:32:45.592Z,36.66
2023-05-01T06:35:49.139Z,36.61
2023-05-01T06:38:52.568Z,36.43
2023-05-01T06:41:55.930Z,36.26
2023-05-01T06:45:08.877Z,37.67
2023-05-01T06:48:12.036Z,37.15
2023-05-01T06:51:16.155Z,36.98
2023-05-01T06:54:19.723Z,37.44
2023-05-01T06:57:23.054Z,37.29
2023-05-01T07:00:26.336Z,36.29
2023-05-01T07:03:29.478Z,36.92
2023-05-01T07:06:32.886Z,36.79
2023-05-01T07:09:36.805Z,37.77
2023-05-01T07:12:40.088Z,36.35
2023-05-01T07:15:43.804Z,35.27
2023-05-01T07:18:47.359Z,34.18
2023-05-01T07:21:50.739Z,36.51
2023-05-01T07:24:54.026Z,34.83
2023-05-01T07:27:57.480Z,35.53
2023-05-01T07:31:01.865Z,35.40
2023-05-01T07:34:05.215Z,33.67
2023-05-01T07:37:08.290Z,34.63
2023-05-01T07:40:12.235Z,34.73
2023-05-01T07:43:15.328Z,35.15
2023-05-01T07:46:18.688Z,34.36
2023-05-01T07:49:22.296Z,35.26
2023-05-01T07:52:25.447Z,34.78
2023-05-01T07:55:29.040Z,33.40
2023-05-01T07:58:32.345Z,33.38
2023-05-01T08:01:36.729Z,34.56
2023-05-01T08:04:40.585Z,32.90
2023-05-01T08:07:43.755Z,33.13
2023-05-01T08:10:47.841Z,34.44
2023-05-01T08:13:51.504Z,33.76
2023-05-01T08:16:55.570Z,35.55
2023-05-01T08:20:00.736Z,32.86
2023-05-01T08:23:04.118Z,34.68
2023-05-01T08:26:07.405Z,35.25
2023-05-01T08:29:11.075Z,33.02
2023-05-01T08:32:15.505Z,31.94
2023-05-01T08:35:18.898Z,36.34
2023-05-01T08:38:22.229Z,31.58
2023-05-01T08:41:27.832Z,33.75
2023-05-01T08:44:31.739Z,32.87
2023-05-01T08:47:38.695Z,31.24
2023-05-01T08:50:46.799Z,30.94
2023-05-01T08:53:52.341Z,30.81
2023-05-01T08:56:57.710Z,31.17
2023-05-01T09:00:01.801Z,32.74
2023-05-01T09:03:08.045Z,31.62
2023-05-01T09:06:13.671Z,31.81
2023-05-01T09:09:16.772Z,32.28
2023-05-01T09:12:24.996Z,30.69
2023-05-01T09:15:30.167Z,31.21
2023-05-01T09:18:35.234Z,29.90
2023-05-01T09:21:40.916Z,29.59
2023-05-01T09:24:45.566Z,31.52
2023-05-01T09:27:49.475Z,29.58
2023-05-01T09:30:52.952Z,30.71
2023-05-01T09:34:02.210Z,28.78
2023-05-01T09:37:05.427Z,28.42
2023-05-01T09:40:09.831Z,30.14
2023-05-01T09:43:13.398Z,30.26
2023-05-01T09:46:17.041Z,29.11
2023-05-01T09:49:20.714Z,30.93
2023-05-01T09:52:28.038Z,28.71
2023-05-01T09:55:31.792Z,27.72
2023-05-01T09:58:35.082Z,30.27
2023-05-01T10:01:40.283Z,29.90
2023-05-01T10:04:43.791Z,29.34
2023-05-01T10:08:05.048Z,28.71
2023-05-01T10:11:08.452Z,27.16
2023-05-01T10:14:12.078Z,28.59
2023-05-01T10:17:21.273Z,28.08
2023-05-01T10:20:25.112Z,27.62
2023-05-01T10:23:28.488Z,27.37
2023-05-01T10:26:34.815Z,27.10
2023-05-01T10:29:44.825Z,27.55
2023-05-01T10:32:48.046Z,27.12
2023-05-01T10:35:57.553Z,30.05
2023-05-01T10:39:01.810Z,26.22
2023-05-01T10:42:05.734Z,26.42
2023-05-01T10:45:29.356Z,27.67
2023-05-01T10:48:38.280Z,28.22
2023-05-01T10:51:58.105Z,25.21
2023-05-01T10:55:36.429Z,27.30
2023-05-01T10:58:39.714Z,24.44
2023-05-01T11:01:48.280Z,23.48
2023-05-01T11:04:54.145Z,24.98
2023-05-01T11:08:33.830Z,24.71
2023-05-01T11:11:37.121Z,26.37
2023-05-01T11:15:05.987Z,23.21
2023-05-01T11:18:11.250Z,25.40
2023-05-01T11:21:15.555Z,24.23
2023-05-01T11:24:19.813Z,26.08
2023-05-01T11:27:22.834Z,26.49
2023-05-01T11:30:26.122Z,25.30
2023-05-01T11:33:29.400Z,25.03
2023-05-01T11:36:49.402Z,26.50
2023-05-01T11:39:53.834Z,25.76
2023-05-01T11:43:15.166Z,27.06
2023-05-01T11:46:28.513Z,25.17
2023-05-01T11:49:31.893Z,26.01
2023-05-01T11:52:55.136Z,25.36
2023-05-01T11:55:59.659Z,31.10
2023-05-01T11:59:17.201Z,25.74
2023-05-01T12:02:21.195Z,28.44
2023-05-01T12:05:26.605Z,28.17
2023-05-01T12:08:30.105Z,28.19
2023-05-01T12:11:33.434Z,28.90
2023-05-01T12:14:36.656Z,28.76
2023-05-01T12:17:39.846Z,27.37
2023-05-01T12:20:44.184Z,27.30
2023-05-01T12:23:47.539Z,29.38
2023-05-01T12:27:01.002Z,29.07
2023-05-01T12:30:04.346Z,28.58
2023-05-01T12:33:19.285Z,28.59
2023-05-01T12:36:27.334Z,28.84
2023-05-01T12:39:38.813Z,29.87
2023-05-01T12:42:42.989Z,30.29
2023-05-01T12:45:51.676Z,31.13
2023-05-01T12:48:56.234Z,29.42
2023-05-01T12:52:03.855Z,31.05
2023-05-01T12:55:09.127Z,29.82
2023-05-01T12:58:12.803Z,30.33
2023-05-01T13:01:25.567Z,32.58
2023-05-01T13:04:29.811Z,30.33
2023-05-01T13:07:36.538Z,31.82
2023-05-01T13:10:40.000Z,31.54
2023-05-01T13:13:45.004Z,32.03
2023-05-01T13:16:48.965Z,30.78
2023-05-01T13:19:57.324Z,31.17
2023-05-01T13:23:00.759Z,32.32
2023-05-01T13:26:05.016Z,31.86
2023-05-01T13:29:15.590Z,33.10
2023-05-01T13:32:19.007Z,34.46
2023-05-01T13:35:24.503Z,31.62
2023-05-01T13:38:27.932Z,31.90
2023-05-01T13:41:31.383Z,32.78
2023-05-01T13:44:44.400Z,35.23
2023-05-01T13:47:50.192Z,35.33
2023-05-01T13:50:53.422Z,32.93
2023-05-01T13:53:56.652Z,31.77
2023-05-01T13:57:01.311Z,33.78
2023-05-01T14:00:08.832Z,33.55
2023-05-01T14:03:16.669Z,34.22
2023-05-01T14:06:21.555Z,34.06
2023-05-01T14:09:24.899Z,33.42
2023-05-01T14:12:32.147Z,33.05
2023-05-01T14:15:35.267Z,33.39
2023-05-01T14:18:45.894Z,33.04
2023-05-01T14:21:49.200Z,34.92
2023-05-01T14:24:55.313Z,33.67
2023-05-01T14:28:00.525Z,35.18
2023-05-01T14:31:04.688Z,33.65
2023-05-01T14:34:08.278Z,34.45
2023-05-01T14:37:15.161Z,33.88
2023-05-01T14:40:25.192Z,33.95
2023-05-01T14:43:28.431Z,36.00
2023-05-01T14:46:36.542Z,33.11
2023-05-01T14:49:42.031Z,34.36
2023-05-01T14:52:45.667Z,35.11
2023-05-01T14:55:51.472Z,34.38
2023-05-01T14:58:54.648Z,34.72
2023-05-01T15:01:57.923Z,36.79
2023-05-01T15:05:01.701Z,35.91
2023-05-01T15:08:05.807Z,36.99
2023-05-01T15:11:09.606Z,36.13
2023-05-01T15:14:13.298Z,37.72
2023-05-01T15:17:16.810Z,38.71
2023-05-01T15:20:20.739Z,38.12
2023-05-01T15:23:25.276Z,38.43
2023-05-01T15:26:28.284Z,39.95
2023-05-01T15:29:32.131Z,41.29
2023-05-01T15:32:35.440Z,42.50
2023-05-01T15:35:38.827Z,42.46
2023-05-01T15:38:41.981Z,41.62
2023-05-01T15:41:45.317Z,42.23
2023-05-01T15:44:48.845Z,41.30
2023-05-01T15:47:51.876Z,41.37
2023-05-01T15:50:55.805Z,41.58
2023-05-01T15:54:00.618Z,41.18
2023-05-01T15:57:03.746Z,41.94
2023-05-01T16:00:08.958Z,42.33
2023-05-01T16:03:13.553Z,42.80
2023-05-01T16:06:17.210Z,42.78
2023-05-01T16:09:25.922Z,41.99
2023-05-01T16:12:29.320Z,42.38
2023-05-01T16:15:33.366Z,41.34
2023-05-01T16:18:36.627Z,40.91
2023-05-01T16:21:40.024Z,41.40
2023-05-01T16:24:43.569Z,41.36
2023-05-01T16:27:47.658Z,41.60
2023-05-01T16:30:50.864Z,41.10
2023-05-01T16:33:54.396Z,41.73
2023-05-01T16:36:58.329Z,42.74
2023-05-01T16:40:01.891Z,41.74
2023-05-01T16:43:05.359Z,41.72
2023-05-01T16:46:09.313Z,41.21
2023-05-01T16:49:14.465Z,39.57
2023-05-01T16:52:17.962Z,41.56
2023-05-01T16:55:22.528Z,40.36
2023-05-01T16:58:26.764Z,38.83
2023-05-01T17:01:29.874Z,42.57
2023-05-01T17:04:33.663Z,45.30
2023-05-01T17:07:37.419Z,46.29
2023-05-01T17:10:40.744Z,44.18
2023-05-01T17:13:43.908Z,44.23
2023-05-01T17:16:49.918Z,45.42
2023-05-01T17:19:53.643Z,47.66
2023-05-01T17:22:57.004Z,48.20
2023-05-01T17:26:00.136Z,48.78
2023-05-01T17:29:03.803Z,50.25
2023-05-01T17:32:07.094Z,51.94
2023-05-01T17:35:10.499Z,53.03
2023-05-01T17:38:13.606Z,54.04
2023-05-01T17:41:16.950Z,55.27
2023-05-01T17:44:20.516Z,56.05
2023-05-01T17:47:25.921Z,57.38
2023-05-01T17:50:29.309Z,57.83
2023-05-01T17:53:32.344Z,58.35
2023-05-01T17:56:35.831Z,58.84
2023-05-01T17:59:38.981Z,58.52
2023-05-01T18:02:44.945Z,59.42
2023-05-01T18:05:48.365Z,59.21
2023-05-01T18:08:51.454Z,58.85
2023-05-01T18:11:54.625Z,59.58
2023-05-01T18:14:57.928Z,60.56
2023-05-01T18:18:01.361Z,60.84
2023-05-01T18:21:05.126Z,61.48
2023-05-01T18:24:08.831Z,60.01
2023-05-01T18:27:12.461Z,58.86
2023-05-01T18:30:15.597Z,58.33
2023-05-01T18:33:19.113Z,58.41
2023-05-01T18:36:22.475Z,57.13
2023-05-01T18:39:26.018Z,56.52
2023-05-01T18:42:29.405Z,57.49
2023-05-01T18:45:33.379Z,56.29
2023-05-01T18:48:36.997Z,56.03
2023-05-01T18:51:41.131Z,56.24
2023-05-01T18:54:45.916Z,57.03
2023-05-01T18:57:49.081Z,55.42
2023-05-01T19:00:52.624Z,55.83
2023-05-01T19:03:59.224Z,55.46
2023-05-01T19:07:02.348Z,55.25
2023-05-01T19:10:05.999Z,54.66
2023-05-01T19:13:09.127Z,55.51
2023-05-01T19:16:12.202Z,55.72
2023-05-01T19:19:15.968Z,56.72
2023-05-01T19:22:19.297Z,57.18
2023-05-01T19:25:24.435Z,56.57
2023-05-01T19:28:27.883Z,55.58
2023-05-01T19:31:31.344Z,56.36
2023-05-01T19:34:35.048Z,56.17
2023-05-01T19:37:39.887Z,56.27
2023-05-01T19:40:45.042Z,56.58
2023-05-01T19:43:49.041Z,56.40
2023-05-01T19:46:52.339Z,54.57
2023-05-01T19:49:55.650Z,56.09
2023-05-01T19:53:02.121Z,55.00
2023-05-01T19:56:12.873Z,55.05
2023-05-01T19:59:16.075Z,55.27
2023-05-01T20:02:19.789Z,54.35
2023-05-01T20:05:28.295Z,54.45
2023-05-01T20:08:32.030Z,54.66
2023-05-01T20:11:35.438Z,55.96
2023-05-01T20:14:38.753Z,56.25
2023-05-01T20:17:43.507Z,57.24
2023-05-01T20:20:53.438Z,55.58
2023-05-01T20:23:57.708Z,55.92
2023-05-01T20:27:00.840Z,54.14
2023-05-01T20:30:04.693Z,52.30
2023-05-01T20:33:08.200Z,51.37
2023-05-01T20:36:11.622Z,51.17
2023-05-01T20:39:14.916Z,51.50
2023-05-01T20:42:18.452Z,51.31
2023-05-01T20:45:21.753Z,51.77
2023-05-01T20:48:25.433Z,51.37
2023-05-01T20:51:28.479Z,51.43
2023-05-01T20:54:32.996Z,51.75
2023-05-01T20:57:37.087Z,52.27
2023-05-01T21:00:40.512Z,52.95
2023-05-01T21:03:44.024Z,53.40
2023-05-01T21:06:47.648Z,53.82
2023-05-01T21:09:51.486Z,54.04
2023-05-01T21:12:58.054Z,55.53
2023-05-01T21:16:01.297Z,56.66
2023-05-01T21:19:04.523Z,56.68
2023-05-01T21:22:14.938Z,57.99
2023-05-01T21:25:26.979Z,57.85
2023-05-01T21:28:30.493Z,58.79
2023-05-01T21:31:34.498Z,57.54
2023-05-01T21:34:38.374Z,57.19
2023-05-01T21:37:43.719Z,57.89
2023-05-01T21:40:52.584Z,57.65
2023-05-01T21:43:56.012Z,58.37
2023-05-01T21:47:04.634Z,57.85
2023-05-01T21:50:11.160Z,57.89
2023-05-01T21:53:16.097Z,58.30
2023-05-01T21:56:23.170Z,58.30
2023-05-01T21:59:47.888Z,58.72
2023-05-01T22:02:52.093Z,59.59
2023-05-01T22:05:55.531Z,59.48
2023-05-01T22:08:58.555Z,59.02
2023-05-01T22:12:01.659Z,58.89
2023-05-01T22:15:04.948Z,59.27
2023-05-01T22:18:08.566Z,59.20
2023-05-01T22:21:11.627Z,59.08
2023-05-01T22:24:15.006Z,59.08
2023-05-01T22:27:17.913Z,58.67
2023-05-01T22:30:21.128Z,58.34
2023-05-01T22:33:24.553Z,58.87
2023-05-01T22:36:27.544Z,59.25
2023-05-01T22:39:30.930Z,60.78
2023-05-01T22:42:34.553Z,60.03
2023-05-01T22:45:38.787Z,60.21
2023-05-01T22:48:41.682Z,59.92
2023-05-01T22:51:44.724Z,60.07
2023-05-01T22:54:47.672Z,60.07
2023-05-01T22:57:51.158Z,60.31
2023-05-01T23:00:54.279Z,60.22
2023-05-01T23:03:57.684Z,59.66
2023-05-01T23:07:00.909Z,59.41
2023-05-01T23:10:05.330Z,59.83
2023-05-01T23:13:17.574Z,60.04
2023-05-01T23:16:20.960Z,60.10
2023-05-01T23:19:25.269Z,61.21
2023-05-01T23:22:30.432Z,60.83
2023-05-01T23:25:33.817Z,60.07
2023-05-01T23:28:42.733Z,61.46
2023-05-01T23:31:47.706Z,62.08
2023-05-01T23:34:55.367Z,60.83
2023-05-01T23:37:58.812Z,60.82
2023-05-01T23:41:02.692Z,60.78
2023-05-01T23:44:06.681Z,61.83
2023-05-01T23:47:10.777Z,60.49
2023-05-01T23:50:13.888Z,60.70
2023-05-01T23:53:16.912Z,60.52
2023-05-01T23:56:20.439Z,61.46
2023-05-01T23:59:23.622Z,59.20
